METAR Data
IDs: Format: Raw Decoded Include TAF

Data at: 2006 UTC 23 Oct 2021

KMKT 231956Z AUTO 09008KT 10SM CLR 09/00 A3002 RMK AO2 SLP176 T00940000